Terminal Aerodrome Forecast
Issued by NWS

Home | Current Version | Previous Version | Graphics & Text | Print | Product List | Glossary On
Versions: 1 2 3 4 5 6 7 8 9 10 11 12 13 14 15 16 17 18 19 20 21 22 23 24
000
FTUS43 KBIS 272200 AAB
TAFMOT
TAF AMD
KMOT 272215Z 2722/2818 30006KT P6SM BKN025 OVC035
     FM280300 35007KT 5SM -SN BR BKN015 OVC025
     FM281200 35006KT P6SM -SN SCT025 BKN040=

USA.gov is the U.S. government's official web portal to all federal, state and local government web resources and services.